sensor_id;sensor_type;location;lat;lon;timestamp;pressure;altitude;pressure_sealevel;temperature;humidity
40117;BME280;25829;50.228;18.936;2023-03-15T00:01:31;97391.00;;;4.30;64.31
40117;BME280;25829;50.228;18.936;2023-03-15T00:04:35;97417.03;;;4.16;63.78
40117;BME280;25829;50.228;18.936;2023-03-15T00:07:51;97426.81;;;4.08;63.65
40117;BME280;25829;50.228;18.936;2023-03-15T00:10:53;97440.84;;;4.07;63.97
40117;BME280;25829;50.228;18.936;2023-03-15T00:13:54;97468.56;;;4.08;63.34
40117;BME280;25829;50.228;18.936;2023-03-15T00:16:55;97484.00;;;4.03;62.73
40117;BME280;25829;50.228;18.936;2023-03-15T00:20:03;97486.50;;;3.89;62.56
40117;BME280;25829;50.228;18.936;2023-03-15T00:23:04;97487.44;;;3.82;62.95
40117;BME280;25829;50.228;18.936;2023-03-15T00:26:05;97502.28;;;3.81;62.85
40117;BME280;25829;50.228;18.936;2023-03-15T00:29:06;97517.16;;;3.81;63.26
40117;BME280;25829;50.228;18.936;2023-03-15T00:32:09;97525.94;;;3.80;63.46
40117;BME280;25829;50.228;18.936;2023-03-15T00:35:13;97541.88;;;3.85;63.76
40117;BME280;25829;50.228;18.936;2023-03-15T00:38:17;97549.44;;;3.80;63.45
40117;BME280;25829;50.228;18.936;2023-03-15T00:41:22;97543.53;;;3.71;63.30
40117;BME280;25829;50.228;18.936;2023-03-15T00:44:24;97557.38;;;3.72;63.09
40117;BME280;25829;50.228;18.936;2023-03-15T00:47:27;97569.25;;;3.74;62.91
40117;BME280;25829;50.228;18.936;2023-03-15T00:50:28;97576.50;;;3.79;63.17
40117;BME280;25829;50.228;18.936;2023-03-15T00:53:30;97591.97;;;3.80;62.74
40117;BME280;25829;50.228;18.936;2023-03-15T00:56:31;97595.94;;;3.76;62.72
40117;BME280;25829;50.228;18.936;2023-03-15T00:59:32;97588.69;;;3.72;62.55
40117;BME280;25829;50.228;18.936;2023-03-15T01:02:34;97606.31;;;3.69;62.52
40117;BME280;25829;50.228;18.936;2023-03-15T01:05:37;97615.88;;;3.62;62.69
40117;BME280;25829;50.228;18.936;2023-03-15T01:08:41;97618.91;;;3.66;62.87
40117;BME280;25829;50.228;18.936;2023-03-15T01:11:42;97632.41;;;3.69;63.17
40117;BME280;25829;50.228;18.936;2023-03-15T01:14:43;97633.47;;;3.75;62.92
40117;BME280;25829;50.228;18.936;2023-03-15T01:17:45;97658.03;;;3.81;62.78
40117;BME280;25829;50.228;18.936;2023-03-15T01:20:46;97651.06;;;3.88;62.97
40117;BME280;25829;50.228;18.936;2023-03-15T01:23:53;97657.72;;;3.90;62.46
40117;BME280;25829;50.228;18.936;2023-03-15T01:26:55;97659.50;;;3.90;62.35
40117;BME280;25829;50.228;18.936;2023-03-15T01:29:59;97660.88;;;3.86;62.59
40117;BME280;25829;50.228;18.936;2023-03-15T01:33:00;97678.13;;;3.87;62.56
40117;BME280;25829;50.228;18.936;2023-03-15T01:36:06;97676.28;;;3.81;62.52
40117;BME280;25829;50.228;18.936;2023-03-15T01:39:11;97677.81;;;3.75;62.47
40117;BME280;25829;50.228;18.936;2023-03-15T01:42:18;97685.84;;;3.74;62.48
40117;BME280;25829;50.228;18.936;2023-03-15T01:49:33;97682.31;;;3.66;62.39
40117;BME280;25829;50.228;18.936;2023-03-15T01:52:43;97699.06;;;3.57;62.51
40117;BME280;25829;50.228;18.936;2023-03-15T01:56:07;97694.41;;;3.53;62.57
40117;BME280;25829;50.228;18.936;2023-03-15T01:59:17;97693.94;;;3.49;62.47
40117;BME280;25829;50.228;18.936;2023-03-15T02:02:29;97700.16;;;3.48;62.48
40117;BME280;25829;50.228;18.936;2023-03-15T02:09:19;97695.97;;;3.24;62.12
40117;BME280;25829;50.228;18.936;2023-03-15T02:12:31;97697.97;;;3.22;62.20
40117;BME280;25829;50.228;18.936;2023-03-15T02:15:36;97697.78;;;3.23;62.43
40117;BME280;25829;50.228;18.936;2023-03-15T02:18:56;97700.38;;;3.23;61.93
40117;BME280;25829;50.228;18.936;2023-03-15T02:22:08;97695.81;;;3.26;62.02
40117;BME280;25829;50.228;18.936;2023-03-15T02:28:54;97722.25;;;3.22;61.77
40117;BME280;25829;50.228;18.936;2023-03-15T02:31:59;97719.44;;;3.24;61.64
40117;BME280;25829;50.228;18.936;2023-03-15T02:35:04;97734.28;;;3.23;61.34
40117;BME280;25829;50.228;18.936;2023-03-15T02:38:08;97734.13;;;3.25;61.08
40117;BME280;25829;50.228;18.936;2023-03-15T02:41:10;97737.06;;;3.22;60.85
40117;BME280;25829;50.228;18.936;2023-03-15T02:44:49;97734.63;;;3.20;61.47
40117;BME280;25829;50.228;18.936;2023-03-15T02:47:52;97747.03;;;3.18;61.31
40117;BME280;25829;50.228;18.936;2023-03-15T02:50:53;97748.38;;;3.14;61.24
40117;BME280;25829;50.228;18.936;2023-03-15T02:53:54;97757.06;;;3.07;61.33
40117;BME280;25829;50.228;18.936;2023-03-15T02:57:02;97763.53;;;3.11;61.37
40117;BME280;25829;50.228;18.936;2023-03-15T03:00:05;97759.44;;;3.16;61.73
40117;BME280;25829;50.228;18.936;2023-03-15T03:03:25;97766.34;;;3.24;61.30
40117;BME280;25829;50.228;18.936;2023-03-15T03:06:26;97767.53;;;3.21;61.27
40117;BME280;25829;50.228;18.936;2023-03-15T03:09:27;97772.75;;;3.21;61.39
40117;BME280;25829;50.228;18.936;2023-03-15T03:12:28;97761.41;;;3.14;61.21
40117;BME280;25829;50.228;18.936;2023-03-15T03:15:29;97760.94;;;3.11;61.60
40117;BME280;25829;50.228;18.936;2023-03-15T03:18:34;97764.53;;;3.10;61.53
40117;BME280;25829;50.228;18.936;2023-03-15T03:21:37;97766.22;;;3.03;61.45
40117;BME280;25829;50.228;18.936;2023-03-15T03:35:01;97797.69;;;3.01;61.96
40117;BME280;25829;50.228;18.936;2023-03-15T03:38:02;97798.97;;;3.05;61.94
40117;BME280;25829;50.228;18.936;2023-03-15T03:41:09;97792.09;;;3.04;61.58
40117;BME280;25829;50.228;18.936;2023-03-15T03:44:12;97806.47;;;3.00;61.92
40117;BME280;25829;50.228;18.936;2023-03-15T03:47:17;97809.72;;;3.02;62.02
40117;BME280;25829;50.228;18.936;2023-03-15T03:50:40;97815.66;;;3.11;62.14
40117;BME280;25829;50.228;18.936;2023-03-15T03:53:41;97822.34;;;3.13;62.07
40117;BME280;25829;50.228;18.936;2023-03-15T03:56:48;97831.16;;;3.12;61.84
40117;BME280;25829;50.228;18.936;2023-03-15T04:00:17;97833.78;;;3.04;61.58
40117;BME280;25829;50.228;18.936;2023-03-15T04:03:19;97843.38;;;2.89;62.04
40117;BME280;25829;50.228;18.936;2023-03-15T04:06:31;97850.72;;;2.85;62.46
40117;BME280;25829;50.228;18.936;2023-03-15T04:09:32;97854.47;;;2.83;62.00
40117;BME280;25829;50.228;18.936;2023-03-15T04:12:37;97860.34;;;2.85;62.39
40117;BME280;25829;50.228;18.936;2023-03-15T04:15:49;97855.94;;;2.85;62.05
40117;BME280;25829;50.228;18.936;2023-03-15T04:19:24;97859.66;;;2.91;62.16
40117;BME280;25829;50.228;18.936;2023-03-15T04:22:32;97859.19;;;2.87;62.17
40117;BME280;25829;50.228;18.936;2023-03-15T04:25:57;97864.72;;;2.84;62.22
40117;BME280;25829;50.228;18.936;2023-03-15T04:29:29;97860.34;;;2.85;62.32
40117;BME280;25829;50.228;18.936;2023-03-15T04:32:46;97870.09;;;2.83;62.74
40117;BME280;25829;50.228;18.936;2023-03-15T04:35:55;97873.00;;;2.88;62.56
40117;BME280;25829;50.228;18.936;2023-03-15T04:39:22;97864.38;;;2.87;62.16
40117;BME280;25829;50.228;18.936;2023-03-15T04:42:43;97867.50;;;2.83;62.52
40117;BME280;25829;50.228;18.936;2023-03-15T04:46:04;97874.84;;;2.79;62.37
40117;BME280;25829;50.228;18.936;2023-03-15T04:49:34;97883.47;;;2.80;62.57
40117;BME280;25829;50.228;18.936;2023-03-15T04:53:04;97876.69;;;2.70;62.33
40117;BME280;25829;50.228;18.936;2023-03-15T04:56:23;97882.06;;;2.69;62.50
40117;BME280;25829;50.228;18.936;2023-03-15T04:59:59;97886.78;;;2.73;62.75
40117;BME280;25829;50.228;18.936;2023-03-15T05:03:20;97885.47;;;2.69;62.37
40117;BME280;25829;50.228;18.936;2023-03-15T05:06:28;97900.16;;;2.62;62.39
40117;BME280;25829;50.228;18.936;2023-03-15T05:09:44;97899.03;;;2.65;62.44
40117;BME280;25829;50.228;18.936;2023-03-15T05:13:04;97895.56;;;2.72;62.87
40117;BME280;25829;50.228;18.936;2023-03-15T05:16:17;97897.66;;;2.77;62.35
40117;BME280;25829;50.228;18.936;2023-03-15T05:19:18;97907.75;;;2.80;62.33
40117;BME280;25829;50.228;18.936;2023-03-15T05:22:33;97910.16;;;2.82;62.47
40117;BME280;25829;50.228;18.936;2023-03-15T05:25:54;97910.28;;;2.88;62.54
40117;BME280;25829;50.228;18.936;2023-03-15T05:29:24;97922.63;;;2.94;62.37
40117;BME280;25829;50.228;18.936;2023-03-15T05:32:39;97908.03;;;2.85;61.86
40117;BME280;25829;50.228;18.936;2023-03-15T05:36:04;97910.28;;;2.88;62.03
40117;BME280;25829;50.228;18.936;2023-03-15T05:39:25;97911.28;;;2.87;61.82
40117;BME280;25829;50.228;18.936;2023-03-15T05:42:52;97914.25;;;2.76;61.65
40117;BME280;25829;50.228;18.936;2023-03-15T05:46:03;97913.28;;;2.77;62.01
40117;BME280;25829;50.228;18.936;2023-03-15T05:49:15;97922.72;;;2.78;61.68
40117;BME280;25829;50.228;18.936;2023-03-15T05:52:39;97927.28;;;2.76;61.71
40117;BME280;25829;50.228;18.936;2023-03-15T05:55:51;97934.97;;;2.69;62.03
40117;BME280;25829;50.228;18.936;2023-03-15T05:59:13;97949.56;;;2.79;62.23
40117;BME280;25829;50.228;18.936;2023-03-15T06:02:38;97956.06;;;2.83;61.62
40117;BME280;25829;50.228;18.936;2023-03-15T06:06:02;97953.94;;;2.86;61.63
40117;BME280;25829;50.228;18.936;2023-03-15T06:09:10;97965.16;;;2.87;61.39
40117;BME280;25829;50.228;18.936;2023-03-15T06:12:12;97965.81;;;2.89;61.85
40117;BME280;25829;50.228;18.936;2023-03-15T06:15:15;97977.69;;;2.91;61.54
40117;BME280;25829;50.228;18.936;2023-03-15T06:18:23;97972.63;;;2.90;60.91
40117;BME280;25829;50.228;18.936;2023-03-15T06:21:24;97997.72;;;2.91;60.97
40117;BME280;25829;50.228;18.936;2023-03-15T06:24:25;97989.56;;;2.94;60.76
40117;BME280;25829;50.228;18.936;2023-03-15T06:27:26;98003.69;;;2.99;60.68
40117;BME280;25829;50.228;18.936;2023-03-15T06:30:29;98008.91;;;2.99;60.75
40117;BME280;25829;50.228;18.936;2023-03-15T06:33:33;98019.81;;;3.03;60.74
40117;BME280;25829;50.228;18.936;2023-03-15T06:36:36;98022.06;;;3.06;60.38
40117;BME280;25829;50.228;18.936;2023-03-15T06:39:37;98028.63;;;3.02;60.23
40117;BME280;25829;50.228;18.936;2023-03-15T06:42:39;98030.41;;;3.02;60.21
40117;BME280;25829;50.228;18.936;2023-03-15T06:45:44;98041.50;;;2.95;59.96
40117;BME280;25829;50.228;18.936;2023-03-15T06:48:45;98039.19;;;3.01;60.35
40117;BME280;25829;50.228;18.936;2023-03-15T06:51:50;98063.44;;;3.09;60.39
40117;BME280;25829;50.228;18.936;2023-03-15T06:54:51;98078.41;;;3.15;60.55
40117;BME280;25829;50.228;18.936;2023-03-15T06:57:52;98081.78;;;3.24;60.50
40117;BME280;25829;50.228;18.936;2023-03-15T07:00:53;98087.78;;;3.25;59.98
40117;BME280;25829;50.228;18.936;2023-03-15T07:04:02;98084.09;;;3.19;59.88
40117;BME280;25829;50.228;18.936;2023-03-15T07:07:05;98100.69;;;3.18;60.06
40117;BME280;25829;50.228;18.936;2023-03-15T07:10:07;98088.16;;;3.13;59.85
40117;BME280;25829;50.228;18.936;2023-03-15T07:13:08;98088.84;;;3.15;59.72
40117;BME280;25829;50.228;18.936;2023-03-15T07:16:09;98094.06;;;3.07;59.51
40117;BME280;25829;50.228;18.936;2023-03-15T07:19:10;98097.69;;;2.98;59.48
40117;BME280;25829;50.228;18.936;2023-03-15T07:22:11;98096.22;;;2.95;59.33
40117;BME280;25829;50.228;18.936;2023-03-15T07:25:12;98095.56;;;2.93;59.51
40117;BME280;25829;50.228;18.936;2023-03-15T07:28:14;98104.00;;;3.04;59.76
40117;BME280;25829;50.228;18.936;2023-03-15T07:31:18;98108.53;;;3.10;59.65
40117;BME280;25829;50.228;18.936;2023-03-15T07:34:21;98106.41;;;3.13;59.57
40117;BME280;25829;50.228;18.936;2023-03-15T07:37:26;98107.88;;;3.16;59.57
40117;BME280;25829;50.228;18.936;2023-03-15T07:40:30;98109.34;;;3.10;58.55
40117;BME280;25829;50.228;18.936;2023-03-15T07:43:31;98112.28;;;3.07;58.86
40117;BME280;25829;50.228;18.936;2023-03-15T07:46:47;98111.28;;;3.16;58.86
40117;BME280;25829;50.228;18.936;2023-03-15T07:49:48;98127.38;;;3.28;58.97
40117;BME280;25829;50.228;18.936;2023-03-15T07:52:51;98129.16;;;3.36;58.72
40117;BME280;25829;50.228;18.936;2023-03-15T07:55:52;98137.25;;;3.49;59.10
40117;BME280;25829;50.228;18.936;2023-03-15T07:58:53;98142.13;;;3.60;58.20
40117;BME280;25829;50.228;18.936;2023-03-15T08:01:54;98139.00;;;3.65;58.05
40117;BME280;25829;50.228;18.936;2023-03-15T08:04:55;98139.13;;;3.72;57.62
40117;BME280;25829;50.228;18.936;2023-03-15T08:07:57;98143.69;;;3.69;57.73
40117;BME280;25829;50.228;18.936;2023-03-15T08:10:59;98144.47;;;3.78;58.11
40117;BME280;25829;50.228;18.936;2023-03-15T08:14:03;98151.75;;;3.83;57.96
40117;BME280;25829;50.228;18.936;2023-03-15T08:17:04;98155.38;;;3.82;57.76
40117;BME280;25829;50.228;18.936;2023-03-15T08:20:11;98160.41;;;3.83;58.08
40117;BME280;25829;50.228;18.936;2023-03-15T08:23:20;98164.53;;;3.78;56.99
40117;BME280;25829;50.228;18.936;2023-03-15T08:26:22;98176.44;;;3.72;57.33
40117;BME280;25829;50.228;18.936;2023-03-15T08:29:24;98180.19;;;3.78;57.87
40117;BME280;25829;50.228;18.936;2023-03-15T08:32:25;98179.13;;;3.87;57.39
40117;BME280;25829;50.228;18.936;2023-03-15T08:35:26;98179.97;;;3.87;56.97
40117;BME280;25829;50.228;18.936;2023-03-15T08:38:27;98187.09;;;3.93;57.34
40117;BME280;25829;50.228;18.936;2023-03-15T08:41:28;98185.41;;;4.01;56.50
40117;BME280;25829;50.228;18.936;2023-03-15T08:44:32;98182.13;;;4.07;56.63
40117;BME280;25829;50.228;18.936;2023-03-15T08:47:36;98189.28;;;4.13;56.78
40117;BME280;25829;50.228;18.936;2023-03-15T08:50:37;98197.16;;;4.28;56.93
40117;BME280;25829;50.228;18.936;2023-03-15T08:53:38;98197.28;;;4.34;56.01
40117;BME280;25829;50.228;18.936;2023-03-15T08:56:49;98194.47;;;4.44;56.26
40117;BME280;25829;50.228;18.936;2023-03-15T08:59:58;98204.50;;;4.55;55.75
40117;BME280;25829;50.228;18.936;2023-03-15T09:03:02;98199.22;;;4.63;55.81
40117;BME280;25829;50.228;18.936;2023-03-15T09:06:05;98214.47;;;4.75;55.53
40117;BME280;25829;50.228;18.936;2023-03-15T09:09:12;98213.22;;;4.85;55.03
40117;BME280;25829;50.228;18.936;2023-03-15T09:12:20;98214.03;;;4.86;54.33
40117;BME280;25829;50.228;18.936;2023-03-15T09:15:21;98209.34;;;4.81;53.45
40117;BME280;25829;50.228;18.936;2023-03-15T09:19:01;98220.41;;;4.83;53.53
40117;BME280;25829;50.228;18.936;2023-03-15T09:22:19;98212.88;;;4.88;53.82
40117;BME280;25829;50.228;18.936;2023-03-15T09:25:21;98215.75;;;4.94;53.56
40117;BME280;25829;50.228;18.936;2023-03-15T09:28:22;98218.56;;;4.92;53.56
40117;BME280;25829;50.228;18.936;2023-03-15T09:36:09;98218.47;;;5.00;52.60
40117;BME280;25829;50.228;18.936;2023-03-15T09:39:34;98218.13;;;5.03;52.02
40117;BME280;25829;50.228;18.936;2023-03-15T09:46:31;98219.59;;;5.21;50.70
40117;BME280;25829;50.228;18.936;2023-03-15T09:50:15;98219.41;;;5.22;50.09
40117;BME280;25829;50.228;18.936;2023-03-15T09:53:59;98216.06;;;4.99;50.91
40117;BME280;25829;50.228;18.936;2023-03-15T09:57:17;98225.44;;;5.08;52.26
40117;BME280;25829;50.228;18.936;2023-03-15T10:03:51;98228.19;;;5.44;51.28
40117;BME280;25829;50.228;18.936;2023-03-15T10:06:59;98222.16;;;5.44;50.39
40117;BME280;25829;50.228;18.936;2023-03-15T10:10:01;98236.56;;;5.40;49.98
40117;BME280;25829;50.228;18.936;2023-03-15T10:13:30;98229.25;;;5.35;49.07
40117;BME280;25829;50.228;18.936;2023-03-15T10:16:45;98239.00;;;5.26;49.42
40117;BME280;25829;50.228;18.936;2023-03-15T10:19:51;98241.69;;;5.18;49.15
40117;BME280;25829;50.228;18.936;2023-03-15T10:23:18;98242.03;;;5.15;49.64
40117;BME280;25829;50.228;18.936;2023-03-15T10:26:36;98240.75;;;5.11;48.37
40117;BME280;25829;50.228;18.936;2023-03-15T10:29:44;98242.00;;;5.00;50.11
40117;BME280;25829;50.228;18.936;2023-03-15T10:32:56;98247.31;;;4.92;48.88
40117;BME280;25829;50.228;18.936;2023-03-15T10:36:08;98253.59;;;4.83;49.36
40117;BME280;25829;50.228;18.936;2023-03-15T10:39:11;98258.03;;;4.97;50.24
40117;BME280;25829;50.228;18.936;2023-03-15T10:42:32;98258.25;;;5.10;49.17
40117;BME280;25829;50.228;18.936;2023-03-15T10:45:46;98249.31;;;5.05;47.62
40117;BME280;25829;50.228;18.936;2023-03-15T10:48:58;98252.78;;;5.05;49.97
40117;BME280;25829;50.228;18.936;2023-03-15T10:52:02;98244.84;;;5.13;50.36
40117;BME280;25829;50.228;18.936;2023-03-15T11:01:39;98252.91;;;5.42;49.87
40117;BME280;25829;50.228;18.936;2023-03-15T11:05:29;98254.59;;;5.49;49.87
40117;BME280;25829;50.228;18.936;2023-03-15T11:08:13;98252.63;;;5.51;49.31
40117;BME280;25829;50.228;18.936;2023-03-15T11:11:23;98256.97;;;5.44;49.43
40117;BME280;25829;50.228;18.936;2023-03-15T11:14:45;98261.66;;;5.49;49.13
40117;BME280;25829;50.228;18.936;2023-03-15T11:17:48;98266.34;;;5.53;49.54
40117;BME280;25829;50.228;18.936;2023-03-15T11:20:50;98257.97;;;5.58;49.61
40117;BME280;25829;50.228;18.936;2023-03-15T11:23:55;98256.06;;;5.67;49.71
40117;BME280;25829;50.228;18.936;2023-03-15T11:27:03;98264.00;;;5.73;49.16
40117;BME280;25829;50.228;18.936;2023-03-15T11:30:16;98268.88;;;5.76;49.12
40117;BME280;25829;50.228;18.936;2023-03-15T11:33:57;98251.00;;;5.80;48.14
40117;BME280;25829;50.228;18.936;2023-03-15T11:36:59;98264.34;;;5.70;48.69
40117;BME280;25829;50.228;18.936;2023-03-15T11:40:13;98264.72;;;5.67;48.77
40117;BME280;25829;50.228;18.936;2023-03-15T11:43:24;98259.31;;;5.69;48.14
40117;BME280;25829;50.228;18.936;2023-03-15T11:46:45;98268.06;;;5.61;47.44
40117;BME280;25829;50.228;18.936;2023-03-15T11:49:50;98268.34;;;5.51;47.97
40117;BME280;25829;50.228;18.936;2023-03-15T11:52:52;98276.63;;;5.55;48.64
40117;BME280;25829;50.228;18.936;2023-03-15T12:07:55;98259.50;;;5.82;48.12
40117;BME280;25829;50.228;18.936;2023-03-15T12:10:57;98269.88;;;5.75;48.32
40117;BME280;25829;50.228;18.936;2023-03-15T12:21:37;98286.47;;;5.82;48.58
40117;BME280;25829;50.228;18.936;2023-03-15T12:24:26;98283.06;;;5.82;48.06
40117;BME280;25829;50.228;18.936;2023-03-15T12:27:30;98278.25;;;5.71;48.20
40117;BME280;25829;50.228;18.936;2023-03-15T12:30:39;98280.59;;;5.66;47.82
40117;BME280;25829;50.228;18.936;2023-03-15T12:33:48;98278.59;;;5.53;47.52
40117;BME280;25829;50.228;18.936;2023-03-15T12:40:37;98283.59;;;5.48;48.76
40117;BME280;25829;50.228;18.936;2023-03-15T12:43:43;98284.19;;;5.50;48.09
40117;BME280;25829;50.228;18.936;2023-03-15T12:49:49;98295.56;;;5.42;48.52
40117;BME280;25829;50.228;18.936;2023-03-15T12:52:50;98291.97;;;5.43;48.76
40117;BME280;25829;50.228;18.936;2023-03-15T12:59:49;98294.84;;;5.33;47.60
40117;BME280;25829;50.228;18.936;2023-03-15T13:03:18;98304.50;;;5.33;47.26
40117;BME280;25829;50.228;18.936;2023-03-15T13:06:57;98293.94;;;5.26;47.21
40117;BME280;25829;50.228;18.936;2023-03-15T13:21:33;98315.44;;;5.13;46.67
40117;BME280;25829;50.228;18.936;2023-03-15T13:28:24;98310.69;;;5.32;47.80
40117;BME280;25829;50.228;18.936;2023-03-15T13:35:25;98315.00;;;5.25;48.04
40117;BME280;25829;50.228;18.936;2023-03-15T13:43:17;98335.34;;;5.38;47.38
40117;BME280;25829;50.228;18.936;2023-03-15T13:54:33;98344.19;;;5.36;47.65
40117;BME280;25829;50.228;18.936;2023-03-15T13:57:35;98357.09;;;5.38;48.62
40117;BME280;25829;50.228;18.936;2023-03-15T14:01:28;98351.31;;;5.43;47.95
40117;BME280;25829;50.228;18.936;2023-03-15T14:04:34;98346.91;;;5.43;47.56
40117;BME280;25829;50.228;18.936;2023-03-15T14:15:41;98344.69;;;5.32;47.80
40117;BME280;25829;50.228;18.936;2023-03-15T14:22:25;98359.50;;;5.40;47.06
40117;BME280;25829;50.228;18.936;2023-03-15T14:26:33;98365.38;;;5.42;46.32
40117;BME280;25829;50.228;18.936;2023-03-15T14:29:37;98371.09;;;5.45;47.13
40117;BME280;25829;50.228;18.936;2023-03-15T14:36:29;98355.31;;;5.53;46.27
40117;BME280;25829;50.228;18.936;2023-03-15T14:43:20;98356.84;;;5.48;46.06
40117;BME280;25829;50.228;18.936;2023-03-15T14:46:51;98353.47;;;5.39;45.53
40117;BME280;25829;50.228;18.936;2023-03-15T14:49:58;98353.19;;;5.34;46.05
40117;BME280;25829;50.228;18.936;2023-03-15T14:56:26;98354.28;;;5.40;46.86
40117;BME280;25829;50.228;18.936;2023-03-15T14:59:26;98355.28;;;5.39;46.29
40117;BME280;25829;50.228;18.936;2023-03-15T15:02:31;98355.50;;;5.29;45.16
40117;BME280;25829;50.228;18.936;2023-03-15T15:05:34;98345.69;;;5.31;46.89
40117;BME280;25829;50.228;18.936;2023-03-15T15:08:36;98352.75;;;5.30;46.42
40117;BME280;25829;50.228;18.936;2023-03-15T15:19:59;98365.31;;;5.50;46.82
40117;BME280;25829;50.228;18.936;2023-03-15T15:23:19;98369.72;;;5.49;46.34
40117;BME280;25829;50.228;18.936;2023-03-15T15:27:17;98376.63;;;5.50;46.79
40117;BME280;25829;50.228;18.936;2023-03-15T15:33:58;98367.75;;;5.36;46.65
40117;BME280;25829;50.228;18.936;2023-03-15T15:37:11;98365.97;;;5.29;46.79
40117;BME280;25829;50.228;18.936;2023-03-15T15:40:27;98373.19;;;5.27;46.45
40117;BME280;25829;50.228;18.936;2023-03-15T15:43:31;98373.00;;;5.28;47.37
40117;BME280;25829;50.228;18.936;2023-03-15T15:46:32;98375.63;;;5.28;47.35
40117;BME280;25829;50.228;18.936;2023-03-15T15:49:41;98374.28;;;5.32;47.23
40117;BME280;25829;50.228;18.936;2023-03-15T15:52:51;98375.03;;;5.41;47.26
40117;BME280;25829;50.228;18.936;2023-03-15T16:03:26;98382.19;;;5.24;47.38
40117;BME280;25829;50.228;18.936;2023-03-15T16:06:27;98387.63;;;5.23;47.53
40117;BME280;25829;50.228;18.936;2023-03-15T16:09:30;98382.56;;;5.21;47.80
40117;BME280;25829;50.228;18.936;2023-03-15T16:12:37;98390.25;;;5.23;48.17
40117;BME280;25829;50.228;18.936;2023-03-15T16:15:38;98387.31;;;5.18;47.77
40117;BME280;25829;50.228;18.936;2023-03-15T16:18:39;98386.84;;;5.14;48.24
40117;BME280;25829;50.228;18.936;2023-03-15T16:21:46;98402.06;;;5.10;48.27
40117;BME280;25829;50.228;18.936;2023-03-15T16:25:21;98392.31;;;5.04;48.47
40117;BME280;25829;50.228;18.936;2023-03-15T16:28:24;98396.56;;;5.05;48.23
40117;BME280;25829;50.228;18.936;2023-03-15T16:31:28;98401.50;;;5.00;48.69
40117;BME280;25829;50.228;18.936;2023-03-15T16:34:29;98400.22;;;4.96;47.82
40117;BME280;25829;50.228;18.936;2023-03-15T16:37:37;98401.56;;;4.92;48.53
40117;BME280;25829;50.228;18.936;2023-03-15T16:40:40;98406.44;;;4.95;48.45
40117;BME280;25829;50.228;18.936;2023-03-15T16:43:51;98408.41;;;4.93;48.78
40117;BME280;25829;50.228;18.936;2023-03-15T16:46:52;98406.13;;;4.90;49.00
40117;BME280;25829;50.228;18.936;2023-03-15T16:49:53;98411.34;;;4.90;49.03
40117;BME280;25829;50.228;18.936;2023-03-15T16:52:59;98422.97;;;4.87;48.74
40117;BME280;25829;50.228;18.936;2023-03-15T16:56:03;98418.56;;;4.88;49.27
40117;BME280;25829;50.228;18.936;2023-03-15T16:59:04;98423.66;;;4.81;48.77
40117;BME280;25829;50.228;18.936;2023-03-15T17:02:21;98419.94;;;4.76;48.90
40117;BME280;25829;50.228;18.936;2023-03-15T17:05:25;98420.25;;;4.73;49.35
40117;BME280;25829;50.228;18.936;2023-03-15T17:08:26;98437.28;;;4.69;49.67
40117;BME280;25829;50.228;18.936;2023-03-15T17:11:27;98441.38;;;4.63;48.83
40117;BME280;25829;50.228;18.936;2023-03-15T17:14:29;98431.78;;;4.55;49.07
40117;BME280;25829;50.228;18.936;2023-03-15T17:17:49;98443.06;;;4.48;48.26
40117;BME280;25829;50.228;18.936;2023-03-15T17:20:51;98444.25;;;4.29;48.97
40117;BME280;25829;50.228;18.936;2023-03-15T17:23:52;98450.66;;;4.18;48.96
40117;BME280;25829;50.228;18.936;2023-03-15T17:26:57;98452.97;;;4.13;49.56
40117;BME280;25829;50.228;18.936;2023-03-15T17:29:57;98460.47;;;4.16;49.97
40117;BME280;25829;50.228;18.936;2023-03-15T17:33:02;98466.16;;;4.20;50.30
40117;BME280;25829;50.228;18.936;2023-03-15T17:36:03;98472.03;;;4.22;50.39
40117;BME280;25829;50.228;18.936;2023-03-15T17:39:07;98472.22;;;4.20;51.31
40117;BME280;25829;50.228;18.936;2023-03-15T17:42:12;98472.84;;;4.14;50.64
40117;BME280;25829;50.228;18.936;2023-03-15T17:45:19;98479.59;;;4.08;51.03
40117;BME280;25829;50.228;18.936;2023-03-15T17:48:23;98479.91;;;4.05;51.27
40117;BME280;25829;50.228;18.936;2023-03-15T17:51:27;98489.69;;;4.03;51.38
40117;BME280;25829;50.228;18.936;2023-03-15T17:54:28;98494.91;;;4.03;51.16
40117;BME280;25829;50.228;18.936;2023-03-15T17:57:29;98486.44;;;3.93;51.06
40117;BME280;25829;50.228;18.936;2023-03-15T18:00:30;98492.16;;;3.88;51.65
40117;BME280;25829;50.228;18.936;2023-03-15T18:03:32;98500.44;;;3.84;51.58
40117;BME280;25829;50.228;18.936;2023-03-15T18:06:33;98496.53;;;3.80;52.03
40117;BME280;25829;50.228;18.936;2023-03-15T18:09:34;98498.34;;;3.79;52.13
40117;BME280;25829;50.228;18.936;2023-03-15T18:12:40;98501.44;;;3.75;52.96
40117;BME280;25829;50.228;18.936;2023-03-15T18:15:46;98504.69;;;3.68;53.36
40117;BME280;25829;50.228;18.936;2023-03-15T18:18:49;98500.44;;;3.59;53.64
40117;BME280;25829;50.228;18.936;2023-03-15T18:21:49;98500.44;;;3.51;53.66
40117;BME280;25829;50.228;18.936;2023-03-15T18:24:50;98500.56;;;3.41;53.75
40117;BME280;25829;50.228;18.936;2023-03-15T18:27:51;98502.19;;;3.34;54.00
40117;BME280;25829;50.228;18.936;2023-03-15T18:30:52;98506.56;;;3.26;54.54
40117;BME280;25829;50.228;18.936;2023-03-15T18:33:53;98500.19;;;3.20;54.74
40117;BME280;25829;50.228;18.936;2023-03-15T18:36:54;98502.47;;;3.15;54.76
40117;BME280;25829;50.228;18.936;2023-03-15T18:39:55;98510.75;;;3.10;54.64
40117;BME280;25829;50.228;18.936;2023-03-15T18:42:56;98518.56;;;3.02;55.01
40117;BME280;25829;50.228;18.936;2023-03-15T18:45:58;98517.56;;;2.95;55.04
40117;BME280;25829;50.228;18.936;2023-03-15T18:48:58;98516.38;;;2.89;55.44
40117;BME280;25829;50.228;18.936;2023-03-15T18:51:59;98512.78;;;2.82;55.67
40117;BME280;25829;50.228;18.936;2023-03-15T18:55:01;98519.09;;;2.80;55.78
40117;BME280;25829;50.228;18.936;2023-03-15T18:58:02;98523.81;;;2.76;55.96
40117;BME280;25829;50.228;18.936;2023-03-15T19:01:10;98517.78;;;2.75;55.98